createdAt,value
2023-04-29T00:00:19.000Z,984.26
2023-04-29T00:05:11.000Z,984.30
2023-04-29T00:10:06.000Z,984.25
2023-04-29T00:15:01.000Z,984.24
2023-04-29T00:19:54.000Z,984.26
2023-04-29T00:24:48.000Z,984.30
2023-04-29T00:29:44.000Z,984.25
2023-04-29T00:34:35.000Z,984.23
2023-04-29T00:39:30.000Z,984.34
2023-04-29T00:44:22.000Z,984.39
2023-04-29T00:49:16.000Z,984.40
2023-04-29T00:54:09.000Z,984.49
2023-04-29T00:59:03.000Z,984.48
2023-04-29T01:03:57.000Z,984.53
2023-04-29T01:08:52.000Z,984.53
2023-04-29T01:13:45.000Z,984.57
2023-04-29T01:18:39.000Z,984.55
2023-04-29T01:23:31.000Z,984.60
2023-04-29T01:28:25.000Z,984.65
2023-04-29T01:33:20.000Z,984.60
2023-04-29T01:38:14.000Z,984.67
2023-04-29T01:43:08.000Z,984.70
2023-04-29T01:48:03.000Z,984.69
2023-04-29T01:52:57.000Z,984.61
2023-04-29T01:57:51.000Z,984.65
2023-04-29T02:02:45.000Z,984.63
2023-04-29T02:07:38.000Z,984.74
2023-04-29T02:12:31.000Z,984.68
2023-04-29T02:17:26.000Z,984.62
2023-04-29T02:22:20.000Z,984.70
2023-04-29T02:27:14.000Z,984.78
2023-04-29T02:32:08.000Z,984.73
2023-04-29T02:37:02.000Z,984.86
2023-04-29T02:41:58.000Z,984.86
2023-04-29T02:46:52.000Z,984.93
2023-04-29T02:51:46.000Z,984.94
2023-04-29T02:56:40.000Z,985.02
2023-04-29T03:01:34.000Z,985.03
2023-04-29T03:06:29.000Z,984.98
2023-04-29T03:11:23.000Z,985.13
2023-04-29T03:16:18.000Z,985.16
2023-04-29T03:21:12.000Z,985.17
2023-04-29T03:26:06.000Z,985.21
2023-04-29T03:31:01.000Z,985.13
2023-04-29T03:35:55.000Z,985.18
2023-04-29T03:40:48.000Z,985.18
2023-04-29T03:45:42.000Z,985.27
2023-04-29T03:50:36.000Z,985.27
2023-04-29T03:55:30.000Z,985.20
2023-04-29T04:00:24.000Z,985.31
2023-04-29T04:05:19.000Z,985.35
2023-04-29T04:10:11.000Z,985.39
2023-04-29T04:15:05.000Z,985.46
2023-04-29T04:19:59.000Z,985.55
2023-04-29T04:24:53.000Z,985.50
2023-04-29T04:29:48.000Z,985.59
2023-04-29T04:34:41.000Z,985.57
2023-04-29T04:39:35.000Z,985.62
2023-04-29T04:44:30.000Z,985.73
2023-04-29T04:49:24.000Z,985.79
2023-04-29T04:54:18.000Z,985.84
2023-04-29T04:59:14.000Z,985.85
2023-04-29T05:04:08.000Z,985.91
2023-04-29T05:09:02.000Z,985.98
2023-04-29T05:13:56.000Z,986.11
2023-04-29T05:18:51.000Z,986.20
2023-04-29T05:23:45.000Z,986.24
2023-04-29T05:28:39.000Z,986.25
2023-04-29T05:33:33.000Z,986.35
2023-04-29T05:38:27.000Z,986.35
2023-04-29T05:43:22.000Z,986.42
2023-04-29T05:48:16.000Z,986.49
2023-04-29T05:53:10.000Z,986.56
2023-04-29T05:58:04.000Z,986.59
2023-04-29T06:02:58.000Z,986.73
2023-04-29T06:07:52.000Z,986.71
2023-04-29T06:12:47.000Z,986.76
2023-04-29T06:17:38.000Z,986.84
2023-04-29T06:22:33.000Z,987.03
2023-04-29T06:27:27.000Z,987.02
2023-04-29T06:32:21.000Z,987.15
2023-04-29T06:37:15.000Z,987.21
2023-04-29T06:42:10.000Z,987.40
2023-04-29T06:47:03.000Z,987.42
2023-04-29T06:51:57.000Z,987.48
2023-04-29T06:56:52.000Z,987.47
2023-04-29T07:01:46.000Z,987.47
2023-04-29T07:06:40.000Z,987.41
2023-04-29T07:11:35.000Z,987.43
2023-04-29T07:16:29.000Z,987.43
2023-04-29T07:21:24.000Z,987.52
2023-04-29T07:26:18.000Z,987.55
2023-04-29T07:31:13.000Z,987.55
2023-04-29T07:36:07.000Z,987.65
2023-04-29T07:41:01.000Z,987.73
2023-04-29T07:45:55.000Z,987.83
2023-04-29T07:50:50.000Z,987.74
2023-04-29T07:55:43.000Z,987.85
2023-04-29T08:00:36.000Z,987.92
2023-04-29T08:05:30.000Z,987.93
2023-04-29T08:10:25.000Z,987.96
2023-04-29T08:15:18.000Z,988.01
2023-04-29T08:20:12.000Z,988.11
2023-04-29T08:25:07.000Z,988.21
2023-04-29T08:30:01.000Z,988.18
2023-04-29T08:34:55.000Z,988.21
2023-04-29T08:39:51.000Z,988.26
2023-04-29T08:44:43.000Z,988.33
2023-04-29T08:49:37.000Z,988.41
2023-04-29T08:54:31.000Z,988.40
2023-04-29T08:59:25.000Z,988.54
2023-04-29T09:04:19.000Z,988.48
2023-04-29T09:09:13.000Z,988.49
2023-04-29T09:14:07.000Z,988.49
2023-04-29T09:19:02.000Z,988.61
2023-04-29T09:23:56.000Z,988.60
2023-04-29T09:28:53.000Z,988.71
2023-04-29T09:33:44.000Z,988.76
2023-04-29T09:38:38.000Z,988.81
2023-04-29T09:43:30.000Z,988.86
2023-04-29T09:48:23.000Z,988.93
2023-04-29T09:53:16.000Z,988.94
2023-04-29T09:58:10.000Z,988.92
2023-04-29T10:03:05.000Z,988.99
2023-04-29T10:07:59.000Z,989.05
2023-04-29T10:12:53.000Z,989.14
2023-04-29T10:17:47.000Z,989.13
2023-04-29T10:22:41.000Z,989.20
2023-04-29T10:27:35.000Z,989.15
2023-04-29T10:32:28.000Z,989.17
2023-04-29T10:37:22.000Z,989.25
2023-04-29T10:42:15.000Z,989.23
2023-04-29T10:47:09.000Z,989.29
2023-04-29T10:52:04.000Z,989.32
2023-04-29T10:56:58.000Z,989.25
2023-04-29T11:01:52.000Z,989.20
2023-04-29T11:06:47.000Z,989.21
2023-04-29T11:11:39.000Z,989.29
2023-04-29T11:16:32.000Z,989.26
2023-04-29T11:21:25.000Z,989.29
2023-04-29T11:26:19.000Z,989.27
2023-04-29T11:31:13.000Z,989.36
2023-04-29T11:36:08.000Z,989.39
2023-04-29T11:41:02.000Z,989.34
2023-04-29T11:45:57.000Z,989.37
2023-04-29T11:50:51.000Z,989.42
2023-04-29T11:55:44.000Z,989.41
2023-04-29T12:00:38.000Z,989.51
2023-04-29T12:05:32.000Z,989.39
2023-04-29T12:10:26.000Z,989.50
2023-04-29T12:15:19.000Z,989.50
2023-04-29T12:20:13.000Z,989.53
2023-04-29T12:25:07.000Z,989.63
2023-04-29T12:30:01.000Z,989.63
2023-04-29T12:34:55.000Z,989.72
2023-04-29T12:39:49.000Z,989.74
2023-04-29T12:44:43.000Z,989.74
2023-04-29T12:49:37.000Z,989.81
2023-04-29T12:54:31.000Z,989.87
2023-04-29T12:59:25.000Z,989.91
2023-04-29T13:04:19.000Z,989.93
2023-04-29T13:09:13.000Z,989.92
2023-04-29T13:14:08.000Z,989.94
2023-04-29T13:19:02.000Z,989.96
2023-04-29T13:23:56.000Z,989.86
2023-04-29T13:28:51.000Z,989.84
2023-04-29T13:33:45.000Z,989.81
2023-04-29T13:38:40.000Z,989.99
2023-04-29T13:43:34.000Z,990.03
2023-04-29T13:58:13.000Z,990.06
2023-04-29T14:03:07.000Z,990.09
2023-04-29T14:08:02.000Z,990.04
2023-04-29T14:12:56.000Z,990.12
2023-04-29T14:17:51.000Z,990.12
2023-04-29T14:22:42.000Z,990.11
2023-04-29T14:27:36.000Z,990.16
2023-04-29T14:32:30.000Z,990.16
2023-04-29T14:37:24.000Z,990.24
2023-04-29T14:42:18.000Z,990.28
2023-04-29T14:47:13.000Z,990.37
2023-04-29T14:52:07.000Z,990.36
2023-04-29T14:57:02.000Z,990.43
2023-04-29T15:01:56.000Z,990.49
2023-04-29T15:06:50.000Z,990.55
2023-04-29T15:11:46.000Z,990.55
2023-04-29T15:16:40.000Z,990.55
2023-04-29T15:21:34.000Z,990.52
2023-04-29T15:26:28.000Z,990.66
2023-04-29T15:31:22.000Z,990.63
2023-04-29T15:36:17.000Z,990.69
2023-04-29T15:41:11.000Z,990.59
2023-04-29T15:46:06.000Z,990.71
2023-04-29T15:51:00.000Z,990.75
2023-04-29T15:55:55.000Z,990.71
2023-04-29T16:00:49.000Z,990.76
2023-04-29T16:05:43.000Z,990.71
2023-04-29T16:10:37.000Z,990.68
2023-04-29T16:15:31.000Z,990.68
2023-04-29T16:20:25.000Z,990.67
2023-04-29T16:25:19.000Z,990.74
2023-04-29T16:30:14.000Z,990.77
2023-04-29T16:35:08.000Z,990.83
2023-04-29T16:40:02.000Z,990.86
2023-04-29T16:44:57.000Z,990.76
2023-04-29T16:49:49.000Z,990.78
2023-04-29T16:54:43.000Z,990.83
2023-04-29T16:59:38.000Z,990.89
2023-04-29T17:04:32.000Z,990.92
2023-04-29T17:09:26.000Z,991.01
2023-04-29T17:14:20.000Z,991.01
2023-04-29T17:19:14.000Z,991.02
2023-04-29T17:24:08.000Z,991.09
2023-04-29T17:29:03.000Z,991.07
2023-04-29T17:33:58.000Z,991.09
2023-04-29T17:38:52.000Z,991.11
2023-04-29T17:43:45.000Z,991.07
2023-04-29T17:48:39.000Z,991.08
2023-04-29T17:53:33.000Z,991.02
2023-04-29T17:58:27.000Z,991.10
2023-04-29T18:03:21.000Z,991.17
2023-04-29T18:08:14.000Z,991.19
2023-04-29T18:13:08.000Z,991.18
2023-04-29T18:18:03.000Z,991.33
2023-04-29T18:22:57.000Z,991.24
2023-04-29T18:27:51.000Z,991.32
2023-04-29T18:32:45.000Z,991.20
2023-04-29T18:37:39.000Z,991.28
2023-04-29T18:42:33.000Z,991.19
2023-04-29T18:47:28.000Z,991.26
2023-04-29T18:52:22.000Z,991.27
2023-04-29T18:57:16.000Z,991.21
2023-04-29T19:02:11.000Z,991.26
2023-04-29T19:07:05.000Z,991.42
2023-04-29T19:11:59.000Z,991.43
2023-04-29T19:16:54.000Z,991.53
2023-04-29T19:21:48.000Z,991.61
2023-04-29T19:26:42.000Z,991.61
2023-04-29T19:31:36.000Z,991.64
2023-04-29T19:36:31.000Z,991.69
2023-04-29T19:41:25.000Z,991.79
2023-04-29T19:46:18.000Z,991.78
2023-04-29T19:51:13.000Z,991.74
2023-04-29T19:56:07.000Z,991.74
2023-04-29T20:01:01.000Z,991.79
2023-04-29T20:05:55.000Z,991.79
2023-04-29T20:10:50.000Z,991.71
2023-04-29T20:15:44.000Z,991.67
2023-04-29T20:20:39.000Z,991.70
2023-04-29T20:25:33.000Z,991.78
2023-04-29T20:30:27.000Z,991.78
2023-04-29T20:35:20.000Z,991.75
2023-04-29T20:40:15.000Z,991.77
2023-04-29T20:45:09.000Z,991.94
2023-04-29T20:50:03.000Z,991.93
2023-04-29T20:54:58.000Z,992.00
2023-04-29T20:59:51.000Z,992.18
2023-04-29T21:04:45.000Z,992.18
2023-04-29T21:09:40.000Z,992.12
2023-04-29T21:14:33.000Z,992.18
2023-04-29T21:19:28.000Z,992.22
2023-04-29T21:24:22.000Z,992.09
2023-04-29T21:29:16.000Z,992.19
2023-04-29T21:34:10.000Z,992.18
2023-04-29T21:39:05.000Z,992.27
2023-04-29T21:43:59.000Z,992.23
2023-04-29T21:48:53.000Z,992.28
2023-04-29T21:53:46.000Z,992.31
2023-04-29T21:58:41.000Z,992.37
2023-04-29T22:03:35.000Z,992.33
2023-04-29T22:08:30.000Z,992.41
2023-04-29T22:13:24.000Z,992.35
2023-04-29T22:18:19.000Z,992.36
2023-04-29T22:23:13.000Z,992.45
2023-04-29T22:28:08.000Z,992.56
2023-04-29T22:33:02.000Z,992.58
2023-04-29T22:37:56.000Z,992.62
2023-04-29T22:42:50.000Z,992.55
2023-04-29T22:47:48.000Z,992.62
2023-04-29T22:52:39.000Z,992.58
2023-04-29T22:57:33.000Z,992.58
2023-04-29T23:02:26.000Z,992.61
2023-04-29T23:07:20.000Z,992.61
2023-04-29T23:12:14.000Z,992.62
2023-04-29T23:17:09.000Z,992.64
2023-04-29T23:22:03.000Z,992.61
2023-04-29T23:26:56.000Z,992.61
2023-04-29T23:31:48.000Z,992.62
2023-04-29T23:36:42.000Z,992.73
2023-04-29T23:41:36.000Z,992.69
2023-04-29T23:46:30.000Z,992.73
2023-04-29T23:51:22.000Z,992.71
2023-04-29T23:56:16.000Z,992.66
